sensor_id;sensor_type;location;lat;lon;timestamp;pressure;altitude;pressure_sealevel;temperature;humidity
22862;BME280;11598;50.652;6.172;2023-07-22T00:07:05;96386.41;;;9.48;97.61
22862;BME280;11598;50.652;6.172;2023-07-22T00:17:06;96393.97;;;9.75;96.35
22862;BME280;11598;50.652;6.172;2023-07-22T00:27:06;96389.34;;;9.91;95.55
22862;BME280;11598;50.652;6.172;2023-07-22T00:37:08;96380.56;;;9.81;94.89
22862;BME280;11598;50.652;6.172;2023-07-22T00:47:09;96368.84;;;9.76;94.17
22862;BME280;11598;50.652;6.172;2023-07-22T00:57:09;96371.09;;;9.69;94.61
22862;BME280;11598;50.652;6.172;2023-07-22T01:07:10;96372.25;;;9.65;95.54
22862;BME280;11598;50.652;6.172;2023-07-22T01:17:11;96370.81;;;9.61;95.14
22862;BME280;11598;50.652;6.172;2023-07-22T01:27:11;96362.44;;;9.57;95.36
22862;BME280;11598;50.652;6.172;2023-07-22T01:37:13;96357.25;;;9.57;95.68
22862;BME280;11598;50.652;6.172;2023-07-22T01:47:13;96358.88;;;9.58;95.64
22862;BME280;11598;50.652;6.172;2023-07-22T01:57:14;96349.09;;;9.62;95.28
22862;BME280;11598;50.652;6.172;2023-07-22T02:07:14;96343.91;;;9.62;95.39
22862;BME280;11598;50.652;6.172;2023-07-22T02:17:15;96336.81;;;9.52;95.60
22862;BME280;11598;50.652;6.172;2023-07-22T02:27:15;96332.66;;;9.50;96.18
22862;BME280;11598;50.652;6.172;2023-07-22T02:37:16;96331.00;;;9.49;95.83
22862;BME280;11598;50.652;6.172;2023-07-22T02:47:17;96339.63;;;9.49;95.45
22862;BME280;11598;50.652;6.172;2023-07-22T02:57:18;96347.38;;;9.49;95.17
22862;BME280;11598;50.652;6.172;2023-07-22T03:07:18;96341.16;;;9.52;95.31
22862;BME280;11598;50.652;6.172;2023-07-22T03:17:20;96339.41;;;9.52;94.89
22862;BME280;11598;50.652;6.172;2023-07-22T03:27:21;96326.78;;;9.48;94.90
22862;BME280;11598;50.652;6.172;2023-07-22T03:37:21;96330.63;;;9.42;94.83
22862;BME280;11598;50.652;6.172;2023-07-22T03:47:21;96335.09;;;9.40;94.24
22862;BME280;11598;50.652;6.172;2023-07-22T03:57:26;96334.38;;;9.38;93.90
22862;BME280;11598;50.652;6.172;2023-07-22T04:07:27;96335.31;;;9.37;94.22
22862;BME280;11598;50.652;6.172;2023-07-22T04:17:27;96336.25;;;9.36;94.07
22862;BME280;11598;50.652;6.172;2023-07-22T04:27:27;96335.81;;;9.42;93.36
22862;BME280;11598;50.652;6.172;2023-07-22T04:37:28;96336.50;;;9.57;92.96
22862;BME280;11598;50.652;6.172;2023-07-22T04:47:28;96330.31;;;9.82;92.66
22862;BME280;11598;50.652;6.172;2023-07-22T04:57:28;96324.53;;;10.14;91.83
22862;BME280;11598;50.652;6.172;2023-07-22T05:07:29;96337.13;;;10.54;91.16
22862;BME280;11598;50.652;6.172;2023-07-22T05:17:29;96322.81;;;10.93;89.71
22862;BME280;11598;50.652;6.172;2023-07-22T05:27:31;96327.09;;;11.49;88.39
22862;BME280;11598;50.652;6.172;2023-07-22T05:37:31;96339.81;;;12.07;87.20
22862;BME280;11598;50.652;6.172;2023-07-22T05:47:32;96335.94;;;12.53;86.18
22862;BME280;11598;50.652;6.172;2023-07-22T05:57:33;96344.31;;;12.78;85.62
22862;BME280;11598;50.652;6.172;2023-07-22T06:07:33;96342.38;;;13.10;84.02
22862;BME280;11598;50.652;6.172;2023-07-22T06:17:34;96345.69;;;13.53;81.99
22862;BME280;11598;50.652;6.172;2023-07-22T06:27:34;96354.78;;;14.07;79.81
22862;BME280;11598;50.652;6.172;2023-07-22T06:37:35;96340.81;;;14.65;78.32
22862;BME280;11598;50.652;6.172;2023-07-22T06:47:36;96352.38;;;15.55;74.05
22862;BME280;11598;50.652;6.172;2023-07-22T06:57:36;96347.81;;;16.29;72.61
22862;BME280;11598;50.652;6.172;2023-07-22T07:07:38;96350.28;;;16.75;70.44
22862;BME280;11598;50.652;6.172;2023-07-22T07:17:38;96356.97;;;17.38;68.26
22862;BME280;11598;50.652;6.172;2023-07-22T07:27:38;96361.41;;;16.95;67.22
22862;BME280;11598;50.652;6.172;2023-07-22T07:37:39;96365.56;;;17.48;64.52
22862;BME280;11598;50.652;6.172;2023-07-22T07:47:39;96365.88;;;17.87;61.92
22862;BME280;11598;50.652;6.172;2023-07-22T07:57:39;96367.84;;;18.02;61.62
22862;BME280;11598;50.652;6.172;2023-07-22T08:07:39;96371.47;;;18.58;59.30
22862;BME280;11598;50.652;6.172;2023-07-22T08:17:40;96383.97;;;18.48;59.68
22862;BME280;11598;50.652;6.172;2023-07-22T08:27:40;96371.13;;;18.12;60.86
22862;BME280;11598;50.652;6.172;2023-07-22T08:37:40;96369.66;;;18.58;59.55
22862;BME280;11598;50.652;6.172;2023-07-22T08:47:47;96369.63;;;18.83;57.33
22862;BME280;11598;50.652;6.172;2023-07-22T08:57:51;96365.66;;;18.95;57.23
22862;BME280;11598;50.652;6.172;2023-07-22T09:07:52;96373.97;;;19.23;54.03
22862;BME280;11598;50.652;6.172;2023-07-22T09:17:53;96357.53;;;19.13;51.55
22862;BME280;11598;50.652;6.172;2023-07-22T09:27:55;96365.28;;;19.15;52.95
22862;BME280;11598;50.652;6.172;2023-07-22T09:37:58;96371.31;;;19.63;52.59
22862;BME280;11598;50.652;6.172;2023-07-22T09:47:59;96367.50;;;19.65;51.22
22862;BME280;11598;50.652;6.172;2023-07-22T09:58:04;96362.41;;;19.72;50.43
22862;BME280;11598;50.652;6.172;2023-07-22T10:08:06;96361.91;;;20.23;50.02
22862;BME280;11598;50.652;6.172;2023-07-22T10:18:08;96369.91;;;20.53;45.06
22862;BME280;11598;50.652;6.172;2023-07-22T10:28:10;96368.84;;;20.39;43.15
22862;BME280;11598;50.652;6.172;2023-07-22T10:38:13;96351.41;;;19.92;44.05
22862;BME280;11598;50.652;6.172;2023-07-22T10:48:14;96352.06;;;19.94;44.76
22862;BME280;11598;50.652;6.172;2023-07-22T10:58:15;96345.00;;;19.94;45.00
22862;BME280;11598;50.652;6.172;2023-07-22T11:08:15;96340.94;;;20.06;44.66
22862;BME280;11598;50.652;6.172;2023-07-22T11:18:15;96320.69;;;19.99;44.80
22862;BME280;11598;50.652;6.172;2023-07-22T11:28:16;96321.41;;;20.16;45.45
22862;BME280;11598;50.652;6.172;2023-07-22T11:38:16;96309.28;;;20.30;43.19
22862;BME280;11598;50.652;6.172;2023-07-22T11:48:16;96291.41;;;20.32;43.30
22862;BME280;11598;50.652;6.172;2023-07-22T11:58:24;96298.66;;;20.15;44.37
22862;BME280;11598;50.652;6.172;2023-07-22T12:08:25;96296.31;;;20.20;44.81
22862;BME280;11598;50.652;6.172;2023-07-22T12:18:25;96296.88;;;20.30;44.64
22862;BME280;11598;50.652;6.172;2023-07-22T12:28:26;96295.88;;;20.31;45.64
22862;BME280;11598;50.652;6.172;2023-07-22T12:38:26;96271.75;;;20.57;44.90
22862;BME280;11598;50.652;6.172;2023-07-22T12:48:26;96281.09;;;20.60;44.52
22862;BME280;11598;50.652;6.172;2023-07-22T12:58:27;96264.53;;;20.51;42.65
22862;BME280;11598;50.652;6.172;2023-07-22T13:08:27;96269.53;;;20.46;44.23
22862;BME280;11598;50.652;6.172;2023-07-22T13:18:27;96253.63;;;20.69;44.40
22862;BME280;11598;50.652;6.172;2023-07-22T13:28:28;96246.28;;;20.79;43.44
22862;BME280;11598;50.652;6.172;2023-07-22T13:38:28;96251.25;;;20.89;43.98
22862;BME280;11598;50.652;6.172;2023-07-22T13:48:28;96242.53;;;20.88;43.76
22862;BME280;11598;50.652;6.172;2023-07-22T13:58:29;96227.28;;;20.90;43.69
22862;BME280;11598;50.652;6.172;2023-07-22T14:08:29;96230.22;;;20.81;44.22
22862;BME280;11598;50.652;6.172;2023-07-22T14:18:29;96217.13;;;20.73;44.76
22862;BME280;11598;50.652;6.172;2023-07-22T14:28:30;96224.78;;;20.82;44.44
22862;BME280;11598;50.652;6.172;2023-07-22T14:38:30;96208.47;;;20.79;44.12
22862;BME280;11598;50.652;6.172;2023-07-22T14:48:30;96208.09;;;20.52;44.86
22862;BME280;11598;50.652;6.172;2023-07-22T14:58:31;96216.47;;;20.41;45.12
22862;BME280;11598;50.652;6.172;2023-07-22T15:08:31;96205.63;;;20.21;46.46
22862;BME280;11598;50.652;6.172;2023-07-22T15:18:31;96203.53;;;20.31;46.56
22862;BME280;11598;50.652;6.172;2023-07-22T15:28:31;96211.09;;;20.34;46.79
22862;BME280;11598;50.652;6.172;2023-07-22T15:38:32;96215.75;;;20.32;47.14
22862;BME280;11598;50.652;6.172;2023-07-22T15:48:32;96204.63;;;20.22;46.86
22862;BME280;11598;50.652;6.172;2023-07-22T15:58:33;96206.69;;;19.97;48.67
22862;BME280;11598;50.652;6.172;2023-07-22T16:08:33;96208.09;;;19.84;47.68
22862;BME280;11598;50.652;6.172;2023-07-22T16:18:33;96191.25;;;19.71;47.49
22862;BME280;11598;50.652;6.172;2023-07-22T16:28:34;96190.94;;;19.65;47.96
22862;BME280;11598;50.652;6.172;2023-07-22T16:38:34;96199.28;;;19.54;48.39
22862;BME280;11598;50.652;6.172;2023-07-22T16:48:34;96182.81;;;19.29;49.17
22862;BME280;11598;50.652;6.172;2023-07-22T16:58:35;96175.09;;;19.28;50.10
22862;BME280;11598;50.652;6.172;2023-07-22T17:08:35;96169.50;;;19.31;50.42
22862;BME280;11598;50.652;6.172;2023-07-22T17:18:35;96157.03;;;19.16;50.59
22862;BME280;11598;50.652;6.172;2023-07-22T17:28:35;96162.09;;;19.03;50.92
22862;BME280;11598;50.652;6.172;2023-07-22T17:38:36;96153.25;;;18.96;51.16
22862;BME280;11598;50.652;6.172;2023-07-22T17:48:36;96152.25;;;18.97;51.33
22862;BME280;11598;50.652;6.172;2023-07-22T17:58:36;96150.94;;;18.93;51.10
22862;BME280;11598;50.652;6.172;2023-07-22T18:08:38;96138.13;;;18.90;51.26
22862;BME280;11598;50.652;6.172;2023-07-22T18:18:38;96136.56;;;18.72;51.15
22862;BME280;11598;50.652;6.172;2023-07-22T18:28:38;96132.06;;;18.50;52.00
22862;BME280;11598;50.652;6.172;2023-07-22T18:38:39;96132.66;;;18.29;52.29
22862;BME280;11598;50.652;6.172;2023-07-22T18:48:40;96137.97;;;18.12;53.85
22862;BME280;11598;50.652;6.172;2023-07-22T18:58:40;96137.19;;;17.95;54.45
22862;BME280;11598;50.652;6.172;2023-07-22T19:08:40;96129.81;;;17.74;55.48
22862;BME280;11598;50.652;6.172;2023-07-22T19:18:41;96127.38;;;17.48;56.69
22862;BME280;11598;50.652;6.172;2023-07-22T19:28:41;96135.75;;;17.27;56.64
22862;BME280;11598;50.652;6.172;2023-07-22T19:38:42;96128.50;;;16.97;57.76
22862;BME280;11598;50.652;6.172;2023-07-22T19:48:43;96122.16;;;16.65;58.86
22862;BME280;11598;50.652;6.172;2023-07-22T19:58:44;96120.09;;;16.34;60.45
22862;BME280;11598;50.652;6.172;2023-07-22T20:08:44;96120.00;;;16.10;60.59
22862;BME280;11598;50.652;6.172;2023-07-22T20:18:47;96116.28;;;15.86;61.26
22862;BME280;11598;50.652;6.172;2023-07-22T20:28:47;96121.03;;;15.64;61.77
22862;BME280;11598;50.652;6.172;2023-07-22T20:38:47;96108.97;;;15.46;62.66
22862;BME280;11598;50.652;6.172;2023-07-22T20:48:48;96116.91;;;15.36;64.17
22862;BME280;11598;50.652;6.172;2023-07-22T20:58:48;96097.97;;;15.42;63.63
22862;BME280;11598;50.652;6.172;2023-07-22T21:08:49;96097.06;;;15.51;63.88
22862;BME280;11598;50.652;6.172;2023-07-22T21:18:49;96093.81;;;15.57;64.13
22862;BME280;11598;50.652;6.172;2023-07-22T21:28:50;96084.38;;;15.64;63.61
22862;BME280;11598;50.652;6.172;2023-07-22T21:38:51;96085.56;;;15.70;63.85
22862;BME280;11598;50.652;6.172;2023-07-22T21:48:51;96067.91;;;15.72;63.49
22862;BME280;11598;50.652;6.172;2023-07-22T21:58:52;96063.34;;;15.74;63.57
22862;BME280;11598;50.652;6.172;2023-07-22T22:08:52;96050.91;;;15.76;63.31
22862;BME280;11598;50.652;6.172;2023-07-22T22:18:52;96049.13;;;15.77;63.24
22862;BME280;11598;50.652;6.172;2023-07-22T22:28:53;96042.06;;;15.77;63.10
22862;BME280;11598;50.652;6.172;2023-07-22T22:38:53;96040.13;;;15.79;63.48
22862;BME280;11598;50.652;6.172;2023-07-22T22:48:53;96034.06;;;15.79;63.29
22862;BME280;11598;50.652;6.172;2023-07-22T22:58:53;96025.41;;;15.78;63.76
22862;BME280;11598;50.652;6.172;2023-07-22T23:08:54;96007.41;;;15.83;63.83
22862;BME280;11598;50.652;6.172;2023-07-22T23:18:54;96003.03;;;15.92;62.85
22862;BME280;11598;50.652;6.172;2023-07-22T23:28:54;95992.53;;;15.92;62.56
22862;BME280;11598;50.652;6.172;2023-07-22T23:38:55;95983.38;;;15.96;62.22
22862;BME280;11598;50.652;6.172;2023-07-22T23:48:55;95975.03;;;15.93;62.56
22862;BME280;11598;50.652;6.172;2023-07-22T23:58:56;95959.59;;;15.90;62.30
